createdAt,value
2023-05-19T00:00:22.586Z,9.03
2023-05-19T00:01:24.343Z,8.65
2023-05-19T00:02:26.305Z,9.08
2023-05-19T00:03:28.299Z,8.80
2023-05-19T00:04:30.034Z,8.54
2023-05-19T00:05:31.800Z,8.51
2023-05-19T00:06:33.618Z,8.49
2023-05-19T00:09:02.567Z,7.92
2023-05-19T00:10:04.616Z,8.01
2023-05-19T00:11:06.355Z,8.00
2023-05-19T00:13:29.419Z,7.48
2023-05-19T00:14:31.257Z,6.80
2023-05-19T00:15:33.156Z,7.94
2023-05-19T00:16:35.092Z,7.50
2023-05-19T00:17:36.898Z,7.49
2023-05-19T00:18:38.673Z,7.51
2023-05-19T00:19:40.617Z,7.15
2023-05-19T00:20:42.439Z,7.32
2023-05-19T00:21:44.177Z,7.40
2023-05-19T00:22:45.924Z,7.29
2023-05-19T00:23:47.685Z,6.99
2023-05-19T00:24:49.452Z,7.04
2023-05-19T00:25:51.192Z,7.85
2023-05-19T00:26:53.024Z,7.47
2023-05-19T00:27:54.852Z,6.87
2023-05-19T00:28:56.713Z,7.03
2023-05-19T00:29:58.461Z,7.13
2023-05-19T00:31:00.288Z,6.77
2023-05-19T00:32:02.181Z,6.46
2023-05-19T00:33:04.100Z,7.15
2023-05-19T00:34:05.840Z,6.75
2023-05-19T00:35:07.591Z,6.71
2023-05-19T00:36:09.527Z,6.80
2023-05-19T00:37:11.367Z,7.11
2023-05-19T00:38:13.192Z,6.79
2023-05-19T00:39:15.099Z,7.18
2023-05-19T00:40:16.929Z,6.69
2023-05-19T00:41:18.841Z,6.56
2023-05-19T00:42:20.623Z,6.85
2023-05-19T00:43:22.455Z,6.64
2023-05-19T00:44:24.345Z,6.97
2023-05-19T00:45:26.096Z,6.53
2023-05-19T00:46:28.008Z,7.01
2023-05-19T00:47:29.940Z,6.67
2023-05-19T00:48:31.822Z,6.66
2023-05-19T00:49:33.702Z,6.65
2023-05-19T00:50:35.567Z,6.43
2023-05-19T00:51:37.305Z,6.45
2023-05-19T00:52:39.046Z,6.63
2023-05-19T00:53:40.803Z,6.71
2023-05-19T00:54:42.562Z,7.09
2023-05-19T00:55:44.303Z,6.71
2023-05-19T00:56:46.143Z,6.57
2023-05-19T00:57:47.913Z,6.87
2023-05-19T00:58:49.741Z,7.41
2023-05-19T00:59:51.528Z,7.61
2023-05-19T01:00:53.386Z,7.15
2023-05-19T01:01:55.210Z,7.78
2023-05-19T01:02:57.346Z,6.78
2023-05-19T01:03:59.485Z,6.71
2023-05-19T01:05:01.395Z,7.22
2023-05-19T01:06:03.234Z,6.73
2023-05-19T01:07:05.081Z,6.97
2023-05-19T01:08:06.828Z,7.39
2023-05-19T01:09:08.561Z,6.41
2023-05-19T01:10:10.547Z,6.54
2023-05-19T01:11:12.397Z,6.73
2023-05-19T01:12:14.259Z,6.63
2023-05-19T01:13:16.097Z,6.42
2023-05-19T01:14:17.938Z,6.30
2023-05-19T01:15:19.812Z,6.74
2023-05-19T01:16:21.697Z,6.51
2023-05-19T01:17:23.407Z,6.99
2023-05-19T01:18:25.154Z,7.06
2023-05-19T01:19:27.011Z,7.22
2023-05-19T01:20:28.882Z,6.93
2023-05-19T01:21:30.794Z,6.66
2023-05-19T01:22:32.624Z,6.62
2023-05-19T01:23:34.374Z,6.77
2023-05-19T01:24:36.112Z,6.87
2023-05-19T01:25:38.029Z,7.33
2023-05-19T01:26:39.845Z,6.49
2023-05-19T01:27:41.689Z,6.76
2023-05-19T01:28:43.564Z,6.90
2023-05-19T01:29:45.396Z,7.53
2023-05-19T01:30:47.270Z,7.54
2023-05-19T01:31:49.086Z,6.81
2023-05-19T01:32:50.798Z,6.67
2023-05-19T01:33:52.623Z,7.00
2023-05-19T01:34:54.352Z,7.16
2023-05-19T01:35:56.203Z,7.07
2023-05-19T01:36:58.052Z,6.55
2023-05-19T01:37:59.901Z,7.65
2023-05-19T01:39:01.738Z,7.70
2023-05-19T01:40:03.586Z,7.31
2023-05-19T01:41:05.476Z,7.54
2023-05-19T01:42:07.322Z,7.29
2023-05-19T01:43:09.074Z,7.05
2023-05-19T01:44:10.800Z,7.51
2023-05-19T01:45:12.539Z,7.48
2023-05-19T01:46:14.937Z,7.01
2023-05-19T01:47:16.785Z,7.55
2023-05-19T01:48:18.524Z,10.17
2023-05-19T01:49:20.260Z,9.73
2023-05-19T01:50:22.099Z,8.24
2023-05-19T01:51:23.967Z,7.55
2023-05-19T01:52:25.823Z,6.61
2023-05-19T01:53:27.676Z,7.20
2023-05-19T01:54:29.553Z,5.89
2023-05-19T01:55:31.294Z,6.99
2023-05-19T01:56:33.187Z,6.53
2023-05-19T01:57:35.030Z,6.13
2023-05-19T01:58:36.868Z,6.28
2023-05-19T01:59:38.716Z,6.57
2023-05-19T02:00:40.565Z,5.89
2023-05-19T02:01:42.515Z,6.35
2023-05-19T02:02:44.313Z,5.91
2023-05-19T02:03:46.039Z,5.67
2023-05-19T02:04:47.913Z,6.17
2023-05-19T02:05:49.928Z,5.76
2023-05-19T02:06:51.821Z,5.79
2023-05-19T02:07:53.681Z,5.73
2023-05-19T02:08:55.412Z,5.90
2023-05-19T02:09:57.145Z,5.07
2023-05-19T02:10:58.996Z,5.28
2023-05-19T02:12:00.774Z,5.29
2023-05-19T02:13:02.533Z,5.64
2023-05-19T02:14:04.287Z,5.00
2023-05-19T02:15:06.133Z,5.23
2023-05-19T02:16:08.516Z,5.44
2023-05-19T02:17:10.346Z,4.81
2023-05-19T02:18:12.124Z,6.06
2023-05-19T02:19:13.967Z,5.89
2023-05-19T02:20:15.786Z,5.98
2023-05-19T02:21:17.640Z,5.73
2023-05-19T02:22:19.428Z,5.51
2023-05-19T02:23:21.286Z,5.25
2023-05-19T02:24:23.108Z,5.56
2023-05-19T02:25:24.965Z,5.53
2023-05-19T02:26:26.814Z,5.65
2023-05-19T02:27:28.697Z,5.03
2023-05-19T02:28:30.553Z,4.92
2023-05-19T02:29:32.285Z,4.95
2023-05-19T02:30:34.265Z,5.05
2023-05-19T02:31:36.234Z,4.82
2023-05-19T02:32:38.035Z,4.79
2023-05-19T02:33:39.803Z,4.43
2023-05-19T02:34:41.550Z,5.11
2023-05-19T02:35:43.399Z,7.60
2023-05-19T02:36:45.239Z,6.43
2023-05-19T02:37:47.019Z,6.73
2023-05-19T02:38:48.769Z,6.82
2023-05-19T02:39:50.529Z,7.40
2023-05-19T02:40:52.372Z,7.44
2023-05-19T02:41:54.102Z,8.29
2023-05-19T02:42:55.994Z,8.80
2023-05-19T02:43:57.740Z,8.79
2023-05-19T02:44:59.600Z,9.07
2023-05-19T02:46:01.479Z,8.79
2023-05-19T02:47:03.280Z,9.12
2023-05-19T02:48:05.207Z,8.88
2023-05-19T02:49:07.019Z,9.34
2023-05-19T02:50:09.370Z,8.66
2023-05-19T02:51:11.118Z,9.12
2023-05-19T02:52:12.960Z,9.58
2023-05-19T02:53:14.852Z,9.93
2023-05-19T02:54:16.679Z,9.22
2023-05-19T02:55:18.522Z,10.01
2023-05-19T02:56:20.448Z,9.69
2023-05-19T02:57:22.299Z,9.71
2023-05-19T02:58:24.179Z,9.48
2023-05-19T02:59:26.014Z,11.01
2023-05-19T03:00:27.858Z,10.59
2023-05-19T03:01:29.707Z,10.82
2023-05-19T03:02:31.523Z,10.08
2023-05-19T03:03:33.360Z,9.14
2023-05-19T03:04:35.167Z,9.97
2023-05-19T03:05:36.900Z,8.92
2023-05-19T03:06:38.952Z,10.75
2023-05-19T03:07:40.864Z,11.29
2023-05-19T03:08:42.710Z,16.19
2023-05-19T03:09:44.667Z,15.27
2023-05-19T03:10:46.618Z,13.97
2023-05-19T03:11:48.370Z,10.76
2023-05-19T03:12:50.331Z,10.19
2023-05-19T03:13:52.272Z,10.39
2023-05-19T03:14:54.528Z,9.91
2023-05-19T03:15:56.315Z,9.71
2023-05-19T03:16:58.330Z,10.05
2023-05-19T03:18:00.259Z,9.81
2023-05-19T03:19:02.294Z,10.42
2023-05-19T03:20:04.380Z,9.33
2023-05-19T03:21:06.229Z,9.89
2023-05-19T03:22:07.973Z,9.07
2023-05-19T03:23:09.790Z,10.97
2023-05-19T03:24:11.681Z,13.93
2023-05-19T03:25:13.406Z,15.09
2023-05-19T03:26:15.735Z,17.29
2023-05-19T03:27:17.776Z,16.56
2023-05-19T03:28:19.521Z,16.57
2023-05-19T03:29:21.395Z,16.21
2023-05-19T03:30:23.240Z,16.07
2023-05-19T03:31:25.168Z,15.37
2023-05-19T03:32:27.416Z,14.81
2023-05-19T03:33:29.393Z,14.07
2023-05-19T03:34:31.224Z,11.29
2023-05-19T03:35:33.073Z,11.49
2023-05-19T03:36:35.033Z,11.14
2023-05-19T03:37:36.978Z,11.95
2023-05-19T03:38:38.948Z,11.82
2023-05-19T03:39:40.715Z,11.78
2023-05-19T03:40:42.631Z,12.39
2023-05-19T03:41:44.587Z,13.26
2023-05-19T03:42:46.849Z,13.84
2023-05-19T03:43:48.709Z,13.11
2023-05-19T03:44:50.642Z,13.34
2023-05-19T03:45:52.662Z,12.57
2023-05-19T03:46:54.554Z,12.81
2023-05-19T03:47:56.492Z,12.37
2023-05-19T03:48:58.358Z,11.19
2023-05-19T03:50:00.236Z,11.58
2023-05-19T03:51:02.375Z,10.86
2023-05-19T03:52:04.308Z,10.85
2023-05-19T03:53:06.077Z,10.39
2023-05-19T03:54:08.009Z,9.85
2023-05-19T03:55:09.866Z,9.69
2023-05-19T03:56:11.926Z,9.65
2023-05-19T03:57:13.784Z,9.41
2023-05-19T03:58:15.732Z,10.00
2023-05-19T03:59:17.670Z,9.65
2023-05-19T04:00:19.941Z,10.08
2023-05-19T04:01:21.898Z,9.25
2023-05-19T04:02:23.713Z,9.12
2023-05-19T04:03:25.535Z,9.59
2023-05-19T04:04:27.362Z,9.85
2023-05-19T04:05:29.174Z,9.86
2023-05-19T04:06:31.042Z,10.14
2023-05-19T04:07:32.743Z,9.98
2023-05-19T04:08:34.490Z,10.06
2023-05-19T04:09:36.221Z,10.20
2023-05-19T04:10:38.299Z,10.17
2023-05-19T04:11:40.121Z,9.91
2023-05-19T04:12:41.958Z,9.63
2023-05-19T04:13:45.193Z,10.35
2023-05-19T04:14:47.269Z,10.12
2023-05-19T04:15:49.101Z,11.00
2023-05-19T04:16:50.965Z,11.14
2023-05-19T04:17:52.765Z,11.17
2023-05-19T04:18:54.589Z,11.23
2023-05-19T04:19:56.521Z,10.72
2023-05-19T04:20:58.675Z,10.53
2023-05-19T04:22:00.622Z,10.90
2023-05-19T04:23:02.575Z,11.22
2023-05-19T04:24:04.482Z,11.79
2023-05-19T04:25:06.376Z,11.90
2023-05-19T04:26:08.844Z,11.67
2023-05-19T04:27:10.699Z,12.37
2023-05-19T04:28:12.644Z,11.52
2023-05-19T04:29:14.497Z,12.01
2023-05-19T04:30:18.426Z,11.33
2023-05-19T04:31:20.101Z,11.48
2023-05-19T04:32:21.935Z,11.31
2023-05-19T04:33:23.943Z,10.81
2023-05-19T04:34:25.686Z,10.76
2023-05-19T04:35:27.644Z,10.12
2023-05-19T04:36:29.700Z,9.75
2023-05-19T04:37:31.571Z,9.96
2023-05-19T04:38:33.544Z,10.03
2023-05-19T04:39:35.554Z,9.58
2023-05-19T04:40:37.409Z,9.71
2023-05-19T04:41:39.358Z,8.97
2023-05-19T04:42:41.224Z,9.18
2023-05-19T04:43:43.266Z,9.35
2023-05-19T04:44:45.128Z,8.87
2023-05-19T04:45:47.077Z,8.82
2023-05-19T04:46:49.270Z,8.57
2023-05-19T04:47:51.202Z,8.53
2023-05-19T04:48:53.021Z,8.88
2023-05-19T04:49:54.875Z,9.32
2023-05-19T04:50:56.843Z,8.61
2023-05-19T04:51:58.778Z,8.67
2023-05-19T04:53:00.632Z,9.39
2023-05-19T04:54:02.476Z,8.55
2023-05-19T04:55:04.427Z,8.15
2023-05-19T04:56:06.595Z,8.27
2023-05-19T04:57:08.538Z,7.87
2023-05-19T04:58:10.398Z,8.59
2023-05-19T04:59:12.241Z,8.42
2023-05-19T05:00:15.025Z,8.51
2023-05-19T05:01:17.117Z,8.43
2023-05-19T05:02:19.264Z,9.13
2023-05-19T05:03:21.364Z,8.05
2023-05-19T05:04:23.194Z,8.73
2023-05-19T05:05:25.079Z,8.11
2023-05-19T05:06:26.934Z,7.50
2023-05-19T05:07:30.844Z,7.35
2023-05-19T05:08:32.384Z,7.12
2023-05-19T05:09:34.327Z,7.77
2023-05-19T05:10:36.379Z,7.48
2023-05-19T05:11:38.276Z,7.09
2023-05-19T05:12:40.051Z,7.57
2023-05-19T05:13:41.927Z,6.44
2023-05-19T05:14:43.764Z,6.42
2023-05-19T05:15:45.595Z,6.56
2023-05-19T05:16:47.572Z,6.84
2023-05-19T05:17:49.882Z,6.89
2023-05-19T05:18:51.918Z,7.13
2023-05-19T05:19:53.849Z,6.11
2023-05-19T05:20:55.703Z,6.37
2023-05-19T05:21:57.649Z,6.84
2023-05-19T05:22:59.508Z,6.27
2023-05-19T05:24:01.467Z,6.08
2023-05-19T05:25:03.410Z,5.97
2023-05-19T05:26:05.467Z,5.83
2023-05-19T05:27:07.409Z,6.00
2023-05-19T05:28:09.295Z,6.47
2023-05-19T05:29:11.351Z,5.86
2023-05-19T05:30:13.372Z,6.03
2023-05-19T05:31:15.230Z,5.49
2023-05-19T05:32:17.062Z,5.61
2023-05-19T05:33:19.158Z,5.48
2023-05-19T05:34:21.287Z,5.47
2023-05-19T05:35:23.140Z,5.49
2023-05-19T05:36:25.032Z,4.94
2023-05-19T05:37:26.940Z,5.12
2023-05-19T05:38:28.720Z,4.59
2023-05-19T05:39:30.564Z,4.77
2023-05-19T05:40:32.532Z,5.51
2023-05-19T05:41:34.250Z,5.03
2023-05-19T05:42:36.108Z,4.83
2023-05-19T05:43:38.000Z,5.18
2023-05-19T05:44:39.850Z,4.84
2023-05-19T05:45:41.723Z,5.06
2023-05-19T05:46:43.603Z,5.19
2023-05-19T05:47:45.611Z,4.76
2023-05-19T05:48:47.549Z,4.33
2023-05-19T05:49:49.926Z,4.57
2023-05-19T05:50:52.988Z,5.55
2023-05-19T05:52:58.370Z,5.78
2023-05-19T05:54:00.128Z,5.52
2023-05-19T05:55:01.993Z,5.58
2023-05-19T05:56:03.877Z,5.11
2023-05-19T05:57:05.722Z,5.23
2023-05-19T05:58:07.572Z,4.92
2023-05-19T05:59:09.449Z,4.85
2023-05-19T06:00:11.885Z,4.64
2023-05-19T06:01:13.726Z,4.60
2023-05-19T06:02:15.695Z,4.22
2023-05-19T06:03:17.650Z,4.57
2023-05-19T06:04:19.863Z,4.73
2023-05-19T06:05:21.777Z,4.47
2023-05-19T06:06:23.665Z,4.40
2023-05-19T06:07:25.517Z,4.82
2023-05-19T06:08:27.369Z,5.21
2023-05-19T06:09:29.133Z,5.46
2023-05-19T06:10:32.664Z,6.36
2023-05-19T06:11:34.836Z,6.11
2023-05-19T06:12:36.695Z,6.03
2023-05-19T06:13:38.539Z,5.34
2023-05-19T06:14:40.440Z,5.19
2023-05-19T06:15:42.327Z,5.31
2023-05-19T06:16:44.212Z,4.65
2023-05-19T06:17:46.378Z,4.17
2023-05-19T06:18:48.242Z,4.28
2023-05-19T06:19:50.091Z,4.32
2023-05-19T06:20:51.948Z,4.31
2023-05-19T06:21:53.802Z,3.84
2023-05-19T06:22:55.560Z,5.31
2023-05-19T06:23:57.409Z,4.29
2023-05-19T06:24:59.317Z,4.51
2023-05-19T06:26:01.267Z,4.71
2023-05-19T06:27:03.219Z,4.72
2023-05-19T06:28:05.172Z,3.92
2023-05-19T06:29:07.135Z,4.59
2023-05-19T06:30:10.102Z,4.39
2023-05-19T06:31:14.868Z,4.83
2023-05-19T06:32:16.566Z,5.78
2023-05-19T06:33:18.419Z,5.10
2023-05-19T06:34:20.371Z,4.87
2023-05-19T06:35:22.307Z,5.03
2023-05-19T06:36:24.280Z,4.91
2023-05-19T06:37:26.224Z,3.91
2023-05-19T06:38:28.187Z,3.82
2023-05-19T06:39:30.018Z,3.52
2023-05-19T06:40:32.174Z,3.30
2023-05-19T06:41:34.358Z,3.98
2023-05-19T06:42:36.218Z,3.81
2023-05-19T06:43:40.672Z,4.54
2023-05-19T06:44:42.480Z,4.89
2023-05-19T06:45:44.405Z,5.36
2023-05-19T06:46:46.489Z,5.18
2023-05-19T06:47:48.568Z,4.79
2023-05-19T06:48:50.467Z,4.56
2023-05-19T06:49:52.417Z,4.32
2023-05-19T06:50:54.721Z,4.17
2023-05-19T06:51:56.532Z,4.37
2023-05-19T06:52:58.534Z,4.42
2023-05-19T06:54:00.574Z,3.93
2023-05-19T06:55:02.596Z,3.69
2023-05-19T06:56:04.664Z,4.12
2023-05-19T06:57:06.900Z,3.89
2023-05-19T06:58:08.759Z,3.57
2023-05-19T06:59:10.805Z,3.81
2023-05-19T07:00:15.255Z,3.57
2023-05-19T07:01:17.094Z,3.85
2023-05-19T07:02:19.021Z,4.12
2023-05-19T07:03:21.500Z,4.36
2023-05-19T07:04:23.544Z,3.76
2023-05-19T07:05:25.918Z,4.34
2023-05-19T07:06:27.863Z,3.41
2023-05-19T07:07:29.814Z,3.12
2023-05-19T07:08:31.762Z,2.36
2023-05-19T07:09:33.761Z,2.44
2023-05-19T07:10:35.968Z,2.83
2023-05-19T07:11:37.822Z,2.81
2023-05-19T07:12:39.565Z,3.01
2023-05-19T07:13:41.419Z,2.37
2023-05-19T07:14:43.274Z,2.59
2023-05-19T07:15:45.147Z,2.13
2023-05-19T07:16:47.181Z,2.28
2023-05-19T07:17:49.191Z,2.25
2023-05-19T07:18:51.157Z,1.97
2023-05-19T07:19:53.143Z,1.98
2023-05-19T07:20:55.087Z,2.39
2023-05-19T07:21:56.940Z,2.13
2023-05-19T07:22:58.888Z,2.03
2023-05-19T07:24:00.643Z,2.08
2023-05-19T07:25:02.377Z,2.10
2023-05-19T07:26:04.211Z,2.17
2023-05-19T07:27:06.127Z,2.00
2023-05-19T07:28:08.044Z,2.23
2023-05-19T07:29:09.987Z,2.10
2023-05-19T07:30:12.069Z,2.00
2023-05-19T07:31:13.882Z,1.83
2023-05-19T07:32:15.862Z,2.27
2023-05-19T07:33:17.790Z,2.17
2023-05-19T07:34:19.656Z,2.12
2023-05-19T07:35:21.407Z,2.25
2023-05-19T07:36:23.963Z,2.27
2023-05-19T07:37:25.875Z,2.48
2023-05-19T07:38:27.801Z,2.15
2023-05-19T07:39:29.842Z,2.22
2023-05-19T07:40:32.313Z,2.43
2023-05-19T07:41:36.287Z,2.20
2023-05-19T07:42:38.131Z,2.08
2023-05-19T07:43:39.873Z,2.22
2023-05-19T07:44:41.603Z,1.90
2023-05-19T07:45:43.404Z,2.66
2023-05-19T07:46:45.334Z,2.35
2023-05-19T07:47:47.240Z,2.19
2023-05-19T07:48:49.084Z,2.40
2023-05-19T07:49:51.867Z,2.55
2023-05-19T07:50:54.166Z,2.52
2023-05-19T07:51:56.115Z,2.39
2023-05-19T07:52:58.065Z,2.32
2023-05-19T07:54:00.016Z,2.34
2023-05-19T07:55:01.867Z,2.37
2023-05-19T07:56:03.715Z,2.69
2023-05-19T07:57:05.478Z,2.44
2023-05-19T07:58:07.654Z,2.47
2023-05-19T07:59:09.528Z,2.19
2023-05-19T08:00:11.356Z,2.70
2023-05-19T08:01:13.227Z,2.67
2023-05-19T08:02:14.980Z,2.43
2023-05-19T08:03:16.995Z,2.45
2023-05-19T08:04:19.035Z,2.60
2023-05-19T08:05:21.002Z,2.52
2023-05-19T08:06:23.149Z,2.58
2023-05-19T08:07:24.998Z,2.59
2023-05-19T08:08:26.761Z,2.51
2023-05-19T08:09:28.621Z,2.49
2023-05-19T08:10:30.760Z,2.22
2023-05-19T08:11:32.814Z,3.04
2023-05-19T08:12:34.658Z,2.50
2023-05-19T08:13:36.438Z,2.37
2023-05-19T08:14:38.279Z,2.17
2023-05-19T08:15:40.052Z,2.52
2023-05-19T08:16:42.174Z,2.18
2023-05-19T08:17:44.123Z,1.97
2023-05-19T08:18:46.190Z,2.35
2023-05-19T08:19:48.026Z,2.22
2023-05-19T08:20:49.939Z,2.35
2023-05-19T08:21:51.681Z,2.38
2023-05-19T08:22:53.529Z,2.12
2023-05-19T08:23:55.409Z,2.39
2023-05-19T08:24:57.260Z,2.35
2023-05-19T08:25:59.095Z,2.38
2023-05-19T08:27:01.093Z,2.54
2023-05-19T08:28:03.017Z,2.15
2023-05-19T08:29:05.052Z,2.30
2023-05-19T08:30:07.058Z,2.43
2023-05-19T08:31:08.929Z,2.47
2023-05-19T08:32:12.457Z,2.63
2023-05-19T08:33:14.565Z,2.93
2023-05-19T08:34:16.372Z,2.54
2023-05-19T08:35:18.125Z,2.35
2023-05-19T08:36:20.069Z,2.29
2023-05-19T08:37:21.889Z,2.73
2023-05-19T08:38:23.725Z,2.61
2023-05-19T08:39:25.593Z,2.45
2023-05-19T08:40:27.450Z,2.55
2023-05-19T08:41:29.309Z,2.36
2023-05-19T08:42:31.150Z,2.35
2023-05-19T08:43:33.003Z,2.40
2023-05-19T08:44:34.896Z,2.63
2023-05-19T08:45:36.758Z,2.94
2023-05-19T08:46:38.691Z,2.77
2023-05-19T08:47:40.462Z,2.93
2023-05-19T08:48:42.196Z,2.80
2023-05-19T08:49:43.941Z,2.48
2023-05-19T08:50:45.791Z,2.71
2023-05-19T08:51:47.499Z,2.69
2023-05-19T08:52:51.843Z,2.63
2023-05-19T08:53:53.063Z,2.89
2023-05-19T08:54:54.980Z,2.73
2023-05-19T08:55:56.842Z,2.72
2023-05-19T08:56:58.774Z,2.58
2023-05-19T08:58:00.665Z,2.62
2023-05-19T08:59:02.710Z,2.77
2023-05-19T09:00:04.877Z,3.13
2023-05-19T09:01:06.854Z,2.83
2023-05-19T09:02:08.886Z,2.81
2023-05-19T09:04:15.346Z,3.11
2023-05-19T09:05:17.519Z,3.04
2023-05-19T09:06:19.451Z,3.01
2023-05-19T09:07:21.325Z,2.71
2023-05-19T09:08:23.058Z,3.16
2023-05-19T09:09:24.932Z,2.95
2023-05-19T09:10:28.469Z,3.09
2023-05-19T09:11:30.613Z,2.76
2023-05-19T09:12:32.468Z,2.85
2023-05-19T09:13:34.324Z,3.05
2023-05-19T09:14:36.167Z,2.51
2023-05-19T09:15:38.068Z,2.74
2023-05-19T09:16:39.989Z,2.91
2023-05-19T09:19:03.133Z,2.27
2023-05-19T09:20:05.051Z,2.57
2023-05-19T09:21:06.925Z,3.07
2023-05-19T09:22:08.808Z,2.99
2023-05-19T09:23:12.855Z,2.99
2023-05-19T09:24:14.630Z,3.23
2023-05-19T09:25:16.541Z,3.28
2023-05-19T09:26:18.821Z,3.39
2023-05-19T09:27:20.670Z,3.16
2023-05-19T09:28:22.507Z,3.43
2023-05-19T09:29:24.281Z,4.00
2023-05-19T09:30:26.108Z,3.26
2023-05-19T09:31:28.021Z,3.50
2023-05-19T09:32:30.001Z,3.18
2023-05-19T09:33:32.980Z,3.19
2023-05-19T09:34:34.933Z,6.51
2023-05-19T09:35:36.974Z,7.31
2023-05-19T09:36:39.030Z,4.43
2023-05-19T09:37:40.963Z,4.07
2023-05-19T09:38:42.815Z,5.35
2023-05-19T09:39:44.773Z,7.76
2023-05-19T09:40:46.820Z,7.71
2023-05-19T09:41:48.777Z,10.30
2023-05-19T09:42:50.728Z,4.34
2023-05-19T09:43:52.495Z,7.74
2023-05-19T09:44:54.428Z,7.13
2023-05-19T09:45:56.439Z,5.97
2023-05-19T09:46:58.582Z,7.01
2023-05-19T09:48:00.531Z,6.77
2023-05-19T09:49:02.546Z,7.50
2023-05-19T09:50:04.602Z,8.45
2023-05-19T09:51:06.607Z,8.01
2023-05-19T09:52:09.115Z,10.04
2023-05-19T09:53:12.939Z,4.54
2023-05-19T09:54:14.763Z,4.26
2023-05-19T09:55:16.720Z,4.32
2023-05-19T09:56:18.780Z,4.69
2023-05-19T09:57:20.726Z,7.41
2023-05-19T09:58:22.680Z,5.14
2023-05-19T09:59:24.633Z,4.47
2023-05-19T10:00:26.688Z,4.39
2023-05-19T10:01:28.765Z,4.85
2023-05-19T10:02:30.693Z,4.73
2023-05-19T10:03:32.754Z,4.47
2023-05-19T10:04:34.657Z,4.67
2023-05-19T10:05:36.666Z,4.31
2023-05-19T10:06:38.805Z,4.70
2023-05-19T10:07:40.772Z,4.78
2023-05-19T10:08:42.632Z,4.75
2023-05-19T10:11:05.866Z,5.48
2023-05-19T10:12:07.830Z,4.95
2023-05-19T10:13:10.078Z,5.69
2023-05-19T10:14:12.061Z,6.39
2023-05-19T10:15:14.001Z,5.69
2023-05-19T10:16:16.371Z,8.61
2023-05-19T10:17:18.399Z,6.64
2023-05-19T10:18:20.355Z,6.15
2023-05-19T10:19:22.365Z,6.58
2023-05-19T10:20:24.362Z,6.69
2023-05-19T10:21:26.326Z,6.60
2023-05-19T10:22:28.366Z,5.53
2023-05-19T10:23:30.219Z,5.99
2023-05-19T10:24:32.224Z,6.11
2023-05-19T10:25:34.249Z,5.99
2023-05-19T10:26:36.792Z,6.60
2023-05-19T10:27:38.758Z,6.63
2023-05-19T10:28:40.595Z,5.80
2023-05-19T10:29:42.454Z,6.12
2023-05-19T10:30:44.733Z,5.74
2023-05-19T10:31:46.698Z,6.39
2023-05-19T10:32:48.735Z,5.83
2023-05-19T10:33:50.677Z,6.72
2023-05-19T10:34:52.643Z,7.64
2023-05-19T10:35:54.672Z,7.92
2023-05-19T10:36:56.930Z,7.30
2023-05-19T10:37:58.677Z,7.59
2023-05-19T10:39:00.637Z,6.97
2023-05-19T10:40:02.582Z,7.93
2023-05-19T10:41:04.445Z,7.39
2023-05-19T10:42:06.505Z,6.89
2023-05-19T10:43:08.543Z,8.26
2023-05-19T10:44:10.503Z,7.65
2023-05-19T10:45:12.454Z,8.08
2023-05-19T10:46:14.901Z,7.73
2023-05-19T10:47:16.942Z,8.67
2023-05-19T10:48:18.921Z,7.69
2023-05-19T10:49:20.766Z,7.77
2023-05-19T10:50:22.750Z,8.19
2023-05-19T10:51:24.780Z,8.57
2023-05-19T10:52:26.965Z,8.51
2023-05-19T10:53:28.905Z,8.73
2023-05-19T10:54:31.056Z,7.72
2023-05-19T10:55:33.036Z,8.17
2023-05-19T10:56:35.270Z,7.87
2023-05-19T10:57:37.218Z,7.82
2023-05-19T10:58:39.185Z,7.81
2023-05-19T10:59:41.222Z,8.08
2023-05-19T11:00:43.186Z,8.35
2023-05-19T11:01:45.259Z,8.58
2023-05-19T11:02:47.302Z,8.63
2023-05-19T11:03:49.389Z,7.51
2023-05-19T11:04:51.900Z,7.82
2023-05-19T11:05:54.058Z,8.08
2023-05-19T11:06:55.906Z,8.27
2023-05-19T11:07:57.868Z,9.18
2023-05-19T11:08:59.715Z,10.00
2023-05-19T11:10:01.769Z,8.70
2023-05-19T11:11:03.727Z,7.79
2023-05-19T11:12:05.675Z,8.19
2023-05-19T11:13:07.640Z,8.10
2023-05-19T11:14:09.679Z,8.18
2023-05-19T11:15:11.637Z,8.45
2023-05-19T11:16:13.806Z,8.25
2023-05-19T11:17:15.788Z,8.51
2023-05-19T11:18:17.794Z,8.51
2023-05-19T11:19:19.702Z,8.45
2023-05-19T11:20:22.321Z,8.88
2023-05-19T11:21:24.330Z,8.55
2023-05-19T11:22:26.257Z,8.48
2023-05-19T11:23:28.465Z,8.53
2023-05-19T11:24:30.436Z,8.42
2023-05-19T11:25:32.529Z,8.53
2023-05-19T11:26:34.643Z,9.04
2023-05-19T11:27:36.597Z,9.66
2023-05-19T11:28:38.445Z,9.61
2023-05-19T11:29:40.306Z,9.20
2023-05-19T11:30:42.558Z,10.22
2023-05-19T11:31:44.562Z,9.56
2023-05-19T11:32:46.546Z,10.44
2023-05-19T11:33:48.418Z,10.13
2023-05-19T11:34:50.378Z,9.93
2023-05-19T11:35:52.325Z,9.24
2023-05-19T11:36:54.373Z,10.19
2023-05-19T11:37:56.330Z,9.59
2023-05-19T11:38:58.177Z,9.35
2023-05-19T11:40:02.698Z,9.83
2023-05-19T11:41:04.748Z,9.68
2023-05-19T11:42:06.707Z,10.01
2023-05-19T11:43:08.654Z,9.79
2023-05-19T11:44:10.608Z,9.81
2023-05-19T11:45:12.752Z,9.99
2023-05-19T11:46:15.668Z,9.56
2023-05-19T11:47:17.581Z,10.16
2023-05-19T11:48:19.453Z,10.14
2023-05-19T11:49:21.496Z,9.75
2023-05-19T11:50:23.582Z,9.74
2023-05-19T11:51:25.595Z,10.45
2023-05-19T11:52:27.564Z,10.09
2023-05-19T11:53:29.508Z,9.83
2023-05-19T11:54:31.456Z,9.93
2023-05-19T11:55:33.503Z,10.30
2023-05-19T11:56:35.565Z,10.15
2023-05-19T11:57:37.411Z,9.16
2023-05-19T11:58:39.183Z,9.53
2023-05-19T11:59:41.014Z,9.86
2023-05-19T12:00:43.177Z,9.85
2023-05-19T12:01:45.226Z,9.39
2023-05-19T12:02:47.168Z,9.34
2023-05-19T12:03:49.358Z,8.77
2023-05-19T12:04:51.536Z,8.73
2023-05-19T12:05:53.352Z,9.37
2023-05-19T12:06:55.501Z,9.34
2023-05-19T12:07:57.247Z,9.43
2023-05-19T12:08:59.218Z,9.43
2023-05-19T12:10:01.058Z,9.37
2023-05-19T12:11:02.909Z,8.85
2023-05-19T12:12:04.968Z,9.47
2023-05-19T12:13:06.902Z,9.41
2023-05-19T12:14:08.767Z,9.75
2023-05-19T12:15:11.413Z,9.50
2023-05-19T12:16:13.828Z,9.17
2023-05-19T12:17:15.859Z,9.29
2023-05-19T12:18:18.101Z,9.51
2023-05-19T12:19:19.966Z,9.45
2023-05-19T12:20:22.007Z,9.42
2023-05-19T12:21:24.271Z,9.69
2023-05-19T12:22:28.066Z,9.61
2023-05-19T12:23:29.908Z,8.95
2023-05-19T12:24:31.940Z,9.07
2023-05-19T12:25:34.221Z,8.73
2023-05-19T12:26:36.687Z,8.84
2023-05-19T12:27:38.542Z,9.33
2023-05-19T12:28:40.398Z,9.02
2023-05-19T12:29:42.342Z,8.65
2023-05-19T12:30:44.409Z,8.87
2023-05-19T12:31:46.739Z,8.71
2023-05-19T12:32:48.784Z,8.67
2023-05-19T12:33:50.671Z,8.76
2023-05-19T12:34:52.631Z,9.91
2023-05-19T12:35:54.984Z,8.64
2023-05-19T12:36:56.928Z,9.15
2023-05-19T12:37:58.893Z,8.85
2023-05-19T12:39:00.940Z,9.29
2023-05-19T12:40:02.899Z,8.79
2023-05-19T12:41:04.955Z,9.51
2023-05-19T12:42:07.014Z,8.94
2023-05-19T12:43:08.996Z,9.31
2023-05-19T12:44:10.903Z,9.39
2023-05-19T12:45:12.874Z,9.61
2023-05-19T12:46:15.653Z,8.88
2023-05-19T12:47:17.583Z,9.47
2023-05-19T12:48:19.560Z,9.47
2023-05-19T12:49:21.590Z,9.02
2023-05-19T12:50:23.953Z,9.63
2023-05-19T12:51:25.909Z,9.73
2023-05-19T12:52:27.754Z,9.35
2023-05-19T12:53:29.697Z,9.42
2023-05-19T12:54:31.597Z,9.13
2023-05-19T12:55:33.626Z,9.32
2023-05-19T12:56:35.567Z,9.30
2023-05-19T12:57:37.922Z,8.55
2023-05-19T12:58:39.882Z,8.51
2023-05-19T12:59:41.826Z,8.17
2023-05-19T13:00:44.218Z,9.17
2023-05-19T13:01:46.383Z,8.99
2023-05-19T13:02:48.442Z,8.84
2023-05-19T13:03:50.586Z,8.57
2023-05-19T13:04:52.627Z,8.47
2023-05-19T13:05:54.981Z,8.75
2023-05-19T13:06:56.946Z,8.65
2023-05-19T13:07:58.989Z,8.09
2023-05-19T13:09:00.948Z,8.20
2023-05-19T13:10:02.995Z,8.19
2023-05-19T13:11:04.987Z,8.19
2023-05-19T13:12:06.898Z,8.45
2023-05-19T13:13:08.850Z,8.11
2023-05-19T13:14:10.699Z,8.49
2023-05-19T13:15:12.658Z,8.25
2023-05-19T13:16:15.588Z,8.73
2023-05-19T13:17:17.580Z,9.17
2023-05-19T13:18:19.461Z,8.15
2023-05-19T13:19:25.476Z,8.86
2023-05-19T13:20:27.637Z,7.99
2023-05-19T13:21:29.078Z,8.72
2023-05-19T13:22:30.951Z,11.57
2023-05-19T13:23:32.893Z,9.46
2023-05-19T13:24:35.138Z,9.53
2023-05-19T13:25:37.100Z,9.51
2023-05-19T13:26:39.046Z,8.82
2023-05-19T13:27:40.891Z,8.63
2023-05-19T13:28:42.639Z,8.35
2023-05-19T13:29:44.599Z,8.49
2023-05-19T13:30:46.697Z,8.92
2023-05-19T13:31:49.009Z,8.47
2023-05-19T13:32:51.020Z,8.62
2023-05-19T13:33:52.928Z,7.89
2023-05-19T13:34:55.283Z,8.87
2023-05-19T13:35:57.249Z,7.99
2023-05-19T13:36:59.237Z,8.91
2023-05-19T13:38:01.056Z,8.71
2023-05-19T13:39:02.881Z,8.41
2023-05-19T13:40:05.037Z,8.19
2023-05-19T13:41:07.497Z,7.98
2023-05-19T13:42:10.785Z,9.10
2023-05-19T13:43:12.742Z,8.05
2023-05-19T13:44:14.702Z,8.21
2023-05-19T13:45:16.642Z,8.71
2023-05-19T13:46:22.164Z,7.73
2023-05-19T13:47:22.549Z,8.01
2023-05-19T13:48:24.615Z,7.75
2023-05-19T13:49:26.603Z,7.43